createdAt,value
2024-03-08T00:00:11.970Z,4.52
2024-03-08T00:01:11.943Z,4.46
2024-03-08T00:02:11.957Z,4.46
2024-03-08T00:03:12.034Z,4.41
2024-03-08T00:04:11.877Z,4.45
2024-03-08T00:05:11.867Z,4.51
2024-03-08T00:06:11.860Z,4.52
2024-03-08T00:07:11.836Z,4.38
2024-03-08T00:08:11.795Z,4.46
2024-03-08T00:09:11.826Z,4.40
2024-03-08T00:10:11.788Z,4.43
2024-03-08T00:11:11.759Z,4.48
2024-03-08T00:12:11.742Z,4.46
2024-03-08T00:13:11.703Z,4.45
2024-03-08T00:14:11.718Z,4.48
2024-03-08T00:15:11.709Z,4.31
2024-03-08T00:16:11.644Z,4.43
2024-03-08T00:17:11.641Z,4.37
2024-03-08T00:18:11.720Z,4.46
2024-03-08T00:19:11.609Z,4.45
2024-03-08T00:20:11.576Z,4.40
2024-03-08T00:21:11.694Z,4.35
2024-03-08T00:22:11.537Z,4.31
2024-03-08T00:23:11.505Z,4.27
2024-03-08T00:24:11.549Z,4.26
2024-03-08T00:25:11.606Z,4.27
2024-03-08T00:26:11.454Z,4.27
2024-03-08T00:27:11.529Z,4.22
2024-03-08T00:28:11.423Z,4.20
2024-03-08T00:29:11.396Z,4.22
2024-03-08T00:30:11.438Z,4.22
2024-03-08T00:31:11.361Z,4.18
2024-03-08T00:32:11.332Z,4.18
2024-03-08T00:33:11.409Z,4.22
2024-03-08T00:34:11.297Z,4.16
2024-03-08T00:35:11.286Z,4.19
2024-03-08T00:36:11.271Z,4.20
2024-03-08T00:37:11.247Z,4.12
2024-03-08T00:38:11.216Z,4.10
2024-03-08T00:39:11.226Z,4.20
2024-03-08T00:40:11.181Z,4.16
2024-03-08T00:41:11.155Z,4.12
2024-03-08T00:42:11.205Z,4.16
2024-03-08T00:43:11.129Z,4.16
2024-03-08T00:44:11.107Z,4.09
2024-03-08T00:45:11.150Z,4.15
2024-03-08T00:46:11.102Z,4.10
2024-03-08T00:47:11.045Z,4.10
2024-03-08T00:48:11.081Z,4.12
2024-03-08T00:49:11.024Z,4.08
2024-03-08T00:50:11.006Z,4.01
2024-03-08T00:51:10.982Z,4.10
2024-03-08T00:52:10.943Z,4.10
2024-03-08T00:53:10.940Z,4.01
2024-03-08T00:54:10.947Z,4.00
2024-03-08T00:55:10.882Z,4.02
2024-03-08T00:56:10.865Z,3.98
2024-03-08T00:57:10.950Z,3.98
2024-03-08T00:58:10.828Z,3.92
2024-03-08T00:59:10.807Z,4.00
2024-03-08T01:00:11.012Z,4.00
2024-03-08T01:01:10.787Z,4.02
2024-03-08T01:02:10.794Z,4.08
2024-03-08T01:03:10.761Z,4.08
2024-03-08T01:04:10.710Z,4.05
2024-03-08T01:05:10.686Z,4.02
2024-03-08T01:06:10.714Z,4.01
2024-03-08T01:07:10.649Z,4.00
2024-03-08T01:08:10.631Z,3.97
2024-03-08T01:09:10.760Z,3.94
2024-03-08T01:10:10.950Z,4.04
2024-03-08T01:11:10.744Z,3.91
2024-03-08T01:12:10.584Z,3.88
2024-03-08T01:13:10.530Z,3.91
2024-03-08T01:14:10.508Z,3.91
2024-03-08T01:15:10.595Z,3.80
2024-03-08T01:16:11.475Z,3.74
2024-03-08T01:17:10.503Z,3.82
2024-03-08T01:18:10.518Z,3.76
2024-03-08T01:19:10.632Z,3.76
2024-03-08T01:20:10.389Z,3.73
2024-03-08T01:21:10.408Z,3.73
2024-03-08T01:22:10.356Z,3.76
2024-03-08T01:23:10.351Z,3.79
2024-03-08T01:24:10.468Z,3.70
2024-03-08T01:25:10.297Z,3.73
2024-03-08T01:26:10.281Z,3.72
2024-03-08T01:27:10.295Z,3.65
2024-03-08T01:28:10.269Z,3.61
2024-03-08T01:29:10.225Z,3.66
2024-03-08T01:30:10.233Z,3.65
2024-03-08T01:31:10.184Z,3.62
2024-03-08T01:32:10.163Z,3.59
2024-03-08T01:33:10.198Z,3.55
2024-03-08T01:34:10.164Z,3.58
2024-03-08T01:35:10.099Z,3.48
2024-03-08T01:36:10.170Z,3.52
2024-03-08T01:37:10.054Z,3.46
2024-03-08T01:38:10.030Z,3.58
2024-03-08T01:39:10.184Z,3.48
2024-03-08T01:40:09.991Z,3.48
2024-03-08T01:41:09.984Z,3.55
2024-03-08T01:42:09.973Z,3.47
2024-03-08T01:43:09.935Z,3.36
2024-03-08T01:44:09.916Z,3.40
2024-03-08T01:45:09.944Z,3.43
2024-03-08T01:46:09.887Z,3.41
2024-03-08T01:47:09.855Z,3.43
2024-03-08T01:48:09.885Z,3.44
2024-03-08T01:49:09.821Z,3.46
2024-03-08T01:50:09.823Z,3.37
2024-03-08T01:51:09.843Z,3.41
2024-03-08T01:52:09.753Z,3.33
2024-03-08T01:53:09.739Z,3.51
2024-03-08T01:54:09.756Z,3.43
2024-03-08T01:55:09.701Z,3.40
2024-03-08T01:56:09.678Z,3.32
2024-03-08T01:57:09.807Z,3.36
2024-03-08T01:58:09.640Z,3.35
2024-03-08T01:59:09.631Z,3.44
2024-03-08T02:00:09.637Z,3.40
2024-03-08T02:01:09.589Z,3.36
2024-03-08T02:02:09.559Z,3.32
2024-03-08T02:03:09.599Z,3.32
2024-03-08T02:04:09.519Z,3.40
2024-03-08T02:05:09.511Z,3.25
2024-03-08T02:06:09.543Z,3.24
2024-03-08T02:07:11.292Z,3.25
2024-03-08T02:08:09.474Z,3.25
2024-03-08T02:09:09.511Z,3.28
2024-03-08T02:10:09.396Z,3.25
2024-03-08T02:11:09.422Z,3.24
2024-03-08T02:12:09.638Z,3.18
2024-03-08T02:13:09.352Z,3.21
2024-03-08T02:14:09.316Z,3.14
2024-03-08T02:15:09.371Z,3.10
2024-03-08T02:16:09.651Z,3.17
2024-03-08T02:17:09.265Z,3.14
2024-03-08T02:18:09.338Z,3.07
2024-03-08T02:19:09.216Z,3.10
2024-03-08T02:20:09.205Z,3.09
2024-03-08T02:21:09.207Z,3.04
2024-03-08T02:22:09.193Z,3.09
2024-03-08T02:23:09.135Z,3.06
2024-03-08T02:24:09.218Z,3.06
2024-03-08T02:25:09.105Z,3.06
2024-03-08T02:26:09.080Z,3.06
2024-03-08T02:27:09.178Z,3.01
2024-03-08T02:28:09.034Z,3.00
2024-03-08T02:29:09.018Z,2.99
2024-03-08T02:30:09.077Z,2.94
2024-03-08T02:31:08.981Z,3.01
2024-03-08T02:32:08.973Z,2.99
2024-03-08T02:33:08.998Z,2.92
2024-03-08T02:34:08.922Z,3.04
2024-03-08T02:35:08.927Z,2.92
2024-03-08T02:36:08.950Z,2.91
2024-03-08T02:37:08.856Z,2.92
2024-03-08T02:38:08.859Z,2.89
2024-03-08T02:39:08.960Z,2.88
2024-03-08T02:40:08.787Z,2.86
2024-03-08T02:41:08.818Z,2.82
2024-03-08T02:42:08.839Z,2.91
2024-03-08T02:43:08.742Z,2.86
2024-03-08T02:44:08.725Z,2.89
2024-03-08T02:45:08.782Z,2.89
2024-03-08T02:46:08.671Z,2.83
2024-03-08T02:47:08.666Z,2.96
2024-03-08T02:48:08.723Z,2.86
2024-03-08T02:49:08.628Z,2.74
2024-03-08T02:50:08.598Z,2.78
2024-03-08T02:51:08.607Z,2.74
2024-03-08T02:52:08.564Z,2.74
2024-03-08T02:53:08.545Z,2.71
2024-03-08T02:54:08.579Z,2.70
2024-03-08T02:55:10.942Z,2.76
2024-03-08T02:56:08.475Z,2.68
2024-03-08T02:57:08.708Z,2.67
2024-03-08T02:58:08.431Z,2.68
2024-03-08T02:59:08.409Z,2.65
2024-03-08T03:00:08.566Z,2.68
2024-03-08T03:01:08.411Z,2.57
2024-03-08T03:02:08.354Z,2.61
2024-03-08T03:03:08.713Z,2.57
2024-03-08T03:04:08.309Z,2.60
2024-03-08T03:05:08.288Z,2.50
2024-03-08T03:06:08.334Z,2.50
2024-03-08T03:07:08.281Z,2.40
2024-03-08T03:08:08.231Z,2.50
2024-03-08T03:09:08.256Z,2.35
2024-03-08T03:10:08.265Z,2.40
2024-03-08T03:11:08.281Z,2.43
2024-03-08T03:12:08.219Z,2.40
2024-03-08T03:13:08.137Z,2.32
2024-03-08T03:14:08.110Z,2.32
2024-03-08T03:15:08.271Z,2.31
2024-03-08T03:16:08.063Z,2.25
2024-03-08T03:17:08.072Z,2.29
2024-03-08T03:18:08.172Z,2.32
2024-03-08T03:19:08.000Z,2.27
2024-03-08T03:20:07.981Z,2.21
2024-03-08T03:21:08.061Z,2.16
2024-03-08T03:22:07.962Z,2.11
2024-03-08T03:23:07.947Z,2.07
2024-03-08T03:24:07.941Z,2.20
2024-03-08T03:25:07.891Z,2.16
2024-03-08T03:26:07.885Z,2.07
2024-03-08T03:27:07.912Z,2.10
2024-03-08T03:28:07.826Z,2.11
2024-03-08T03:29:07.799Z,2.06
2024-03-08T03:30:07.946Z,2.06
2024-03-08T03:31:09.566Z,2.04
2024-03-08T03:32:07.744Z,2.03
2024-03-08T03:33:07.917Z,1.94
2024-03-08T03:34:07.693Z,1.94
2024-03-08T03:35:07.674Z,1.98
2024-03-08T03:36:07.706Z,1.98
2024-03-08T03:37:07.641Z,1.87
2024-03-08T03:38:07.667Z,1.88
2024-03-08T03:39:07.712Z,1.83
2024-03-08T03:40:07.609Z,1.81
2024-03-08T03:41:07.597Z,1.81
2024-03-08T03:42:07.596Z,1.76
2024-03-08T03:43:07.607Z,1.77
2024-03-08T03:44:07.495Z,1.69
2024-03-08T03:45:07.604Z,1.69
2024-03-08T03:46:07.454Z,1.67
2024-03-08T03:47:07.439Z,1.69
2024-03-08T03:48:07.506Z,1.66
2024-03-08T03:49:07.392Z,1.65
2024-03-08T03:50:07.371Z,1.69
2024-03-08T03:51:07.381Z,1.63
2024-03-08T03:52:07.390Z,1.65
2024-03-08T03:53:07.312Z,1.67
2024-03-08T03:54:07.396Z,1.58
2024-03-08T03:55:07.279Z,1.54
2024-03-08T03:56:07.265Z,1.58
2024-03-08T03:57:07.330Z,1.61
2024-03-08T03:58:07.237Z,1.56
2024-03-08T03:59:07.197Z,1.63
2024-03-08T04:00:07.279Z,1.66
2024-03-08T04:01:07.175Z,1.58
2024-03-08T04:02:07.137Z,1.66
2024-03-08T04:03:07.558Z,1.58
2024-03-08T04:04:07.088Z,1.55
2024-03-08T04:05:07.069Z,1.55
2024-03-08T04:06:07.093Z,1.56
2024-03-08T04:07:07.030Z,1.54
2024-03-08T04:08:07.008Z,1.44
2024-03-08T04:09:07.081Z,1.55
2024-03-08T04:10:06.970Z,1.54
2024-03-08T04:11:06.978Z,1.55
2024-03-08T04:12:06.990Z,1.58
2024-03-08T04:13:06.929Z,1.51
2024-03-08T04:14:06.915Z,1.56
2024-03-08T04:15:06.951Z,1.55
2024-03-08T04:16:06.842Z,1.55
2024-03-08T04:17:06.827Z,1.56
2024-03-08T04:18:06.871Z,1.66
2024-03-08T04:19:06.792Z,1.55
2024-03-08T04:20:06.767Z,1.59
2024-03-08T04:21:06.767Z,1.54
2024-03-08T04:22:06.717Z,1.58
2024-03-08T04:23:06.706Z,1.66
2024-03-08T04:24:06.834Z,1.61
2024-03-08T04:25:06.676Z,1.55
2024-03-08T04:26:06.635Z,1.63
2024-03-08T04:27:06.667Z,1.59
2024-03-08T04:28:06.609Z,1.56
2024-03-08T04:29:06.573Z,1.63
2024-03-08T04:30:06.607Z,1.65
2024-03-08T04:31:06.539Z,1.66
2024-03-08T04:32:06.518Z,1.63
2024-03-08T04:33:06.617Z,1.61
2024-03-08T04:34:06.487Z,1.66
2024-03-08T04:35:06.508Z,1.69
2024-03-08T04:36:06.502Z,1.69
2024-03-08T04:37:06.412Z,1.70
2024-03-08T04:38:06.397Z,1.70
2024-03-08T04:39:06.560Z,1.72
2024-03-08T04:40:06.352Z,1.70
2024-03-08T04:41:06.327Z,1.74
2024-03-08T04:42:06.796Z,1.70
2024-03-08T04:43:06.290Z,1.74
2024-03-08T04:44:06.275Z,1.72
2024-03-08T04:45:06.335Z,1.70
2024-03-08T04:46:06.276Z,1.73
2024-03-08T04:47:06.207Z,1.70
2024-03-08T04:48:06.256Z,1.69
2024-03-08T04:49:06.176Z,1.72
2024-03-08T04:50:06.146Z,1.69
2024-03-08T04:51:06.244Z,1.67
2024-03-08T04:52:06.115Z,1.70
2024-03-08T04:53:06.083Z,1.70
2024-03-08T04:54:06.207Z,1.72
2024-03-08T04:55:06.047Z,1.66
2024-03-08T04:56:06.038Z,1.65
2024-03-08T04:57:08.918Z,1.77
2024-03-08T04:58:05.986Z,1.70
2024-03-08T04:59:05.961Z,1.70
2024-03-08T05:00:05.981Z,1.69
2024-03-08T05:01:05.952Z,1.67
2024-03-08T05:02:05.924Z,1.72
2024-03-08T05:03:06.052Z,1.67
2024-03-08T05:04:07.552Z,1.66
2024-03-08T05:05:05.838Z,1.65
2024-03-08T05:06:05.877Z,1.63
2024-03-08T05:07:05.805Z,1.63
2024-03-08T05:08:05.772Z,1.70
2024-03-08T05:09:05.857Z,1.70
2024-03-08T05:10:05.736Z,1.66
2024-03-08T05:11:05.729Z,1.72
2024-03-08T05:12:05.805Z,1.70
2024-03-08T05:13:05.686Z,1.66
2024-03-08T05:14:05.669Z,1.66
2024-03-08T05:15:05.684Z,1.65
2024-03-08T05:16:05.616Z,1.59
2024-03-08T05:17:05.597Z,1.69
2024-03-08T05:18:05.760Z,1.65
2024-03-08T05:19:05.547Z,1.73
2024-03-08T05:20:05.529Z,1.61
2024-03-08T05:21:05.552Z,1.58
2024-03-08T05:22:05.490Z,1.56
2024-03-08T05:23:05.465Z,1.58
2024-03-08T05:24:05.498Z,1.67
2024-03-08T05:25:05.424Z,1.61
2024-03-08T05:26:06.878Z,1.59
2024-03-08T05:27:05.452Z,1.61
2024-03-08T05:28:05.390Z,1.61
2024-03-08T05:29:05.351Z,1.58
2024-03-08T05:30:05.369Z,1.65
2024-03-08T05:31:05.312Z,1.56
2024-03-08T05:32:05.323Z,1.65
2024-03-08T05:33:05.348Z,1.55
2024-03-08T05:34:05.294Z,1.59
2024-03-08T05:35:05.220Z,1.58
2024-03-08T05:36:05.246Z,1.55
2024-03-08T05:37:05.184Z,1.61
2024-03-08T05:38:05.169Z,1.66
2024-03-08T05:39:05.225Z,1.51
2024-03-08T05:40:05.113Z,1.58
2024-03-08T05:41:05.100Z,1.61
2024-03-08T05:42:05.098Z,1.59
2024-03-08T05:43:05.059Z,1.56
2024-03-08T05:44:05.032Z,1.59
2024-03-08T05:45:05.041Z,1.61
2024-03-08T05:46:04.996Z,1.47
2024-03-08T05:47:04.976Z,1.56
2024-03-08T05:48:05.070Z,1.58
2024-03-08T05:49:05.046Z,1.54
2024-03-08T05:50:04.929Z,1.54
2024-03-08T05:51:05.028Z,1.58
2024-03-08T05:52:04.869Z,1.55
2024-03-08T05:53:04.854Z,1.45
2024-03-08T05:54:04.848Z,1.58
2024-03-08T05:55:04.803Z,1.54
2024-03-08T05:56:04.789Z,1.55
2024-03-08T05:57:04.802Z,1.56
2024-03-08T05:58:04.748Z,1.63
2024-03-08T05:59:04.726Z,1.56
2024-03-08T06:00:04.762Z,1.65
2024-03-08T06:01:04.693Z,1.61
2024-03-08T06:02:04.677Z,1.65
2024-03-08T06:03:04.679Z,1.65
2024-03-08T06:04:04.624Z,1.59
2024-03-08T06:05:04.617Z,1.61
2024-03-08T06:06:04.633Z,1.66
2024-03-08T06:07:04.563Z,1.66
2024-03-08T06:08:04.563Z,1.73
2024-03-08T06:09:04.569Z,1.63
2024-03-08T06:10:04.530Z,1.72
2024-03-08T06:11:04.504Z,1.70
2024-03-08T06:12:04.490Z,1.72
2024-03-08T06:13:04.459Z,1.69
2024-03-08T06:14:04.415Z,1.74
2024-03-08T06:15:04.407Z,1.85
2024-03-08T06:16:04.373Z,1.88
2024-03-08T06:17:04.368Z,1.94
2024-03-08T06:18:04.438Z,1.99
2024-03-08T06:19:04.312Z,1.98
2024-03-08T06:20:04.294Z,2.02
2024-03-08T06:21:04.419Z,2.02
2024-03-08T06:22:04.278Z,2.07
2024-03-08T06:23:04.246Z,2.06
2024-03-08T06:24:04.422Z,2.13
2024-03-08T06:25:04.194Z,2.13
2024-03-08T06:26:04.168Z,2.16
2024-03-08T06:27:04.173Z,2.27
2024-03-08T06:28:04.129Z,2.29
2024-03-08T06:29:04.121Z,2.22
2024-03-08T06:30:04.105Z,2.29
2024-03-08T06:31:04.064Z,2.39
2024-03-08T06:32:04.073Z,2.40
2024-03-08T06:33:04.085Z,2.39
2024-03-08T06:34:04.168Z,2.57
2024-03-08T06:35:03.984Z,2.52
2024-03-08T06:36:04.011Z,2.55
2024-03-08T06:37:03.947Z,2.70
2024-03-08T06:38:03.948Z,2.70
2024-03-08T06:39:03.960Z,2.74
2024-03-08T06:40:03.878Z,2.82
2024-03-08T06:41:03.893Z,2.94
2024-03-08T06:42:03.874Z,2.88
2024-03-08T06:43:03.833Z,2.96
2024-03-08T06:44:03.797Z,2.99
2024-03-08T06:45:03.869Z,3.03
2024-03-08T06:46:03.757Z,3.07
2024-03-08T06:47:03.739Z,3.10
2024-03-08T06:48:03.798Z,3.15
2024-03-08T06:49:03.736Z,3.10
2024-03-08T06:50:03.694Z,3.18
2024-03-08T06:51:03.687Z,3.25
2024-03-08T06:52:03.635Z,3.25
2024-03-08T06:53:03.625Z,3.25
2024-03-08T06:54:03.717Z,3.33
2024-03-08T06:55:03.578Z,3.37
2024-03-08T06:56:03.560Z,3.32
2024-03-08T06:57:03.652Z,3.40
2024-03-08T06:58:03.512Z,3.37
2024-03-08T06:59:03.494Z,3.40
2024-03-08T07:00:03.505Z,3.46
2024-03-08T07:01:03.510Z,3.52
2024-03-08T07:02:03.477Z,3.47
2024-03-08T07:03:03.504Z,3.48
2024-03-08T07:04:03.389Z,3.52
2024-03-08T07:05:03.371Z,3.56
2024-03-08T07:06:03.364Z,3.55
2024-03-08T07:07:03.338Z,3.62
2024-03-08T07:08:03.354Z,3.77
2024-03-08T07:09:03.460Z,3.77
2024-03-08T07:10:03.924Z,3.90
2024-03-08T07:11:03.311Z,3.80
2024-03-08T07:12:03.245Z,3.84
2024-03-08T07:13:03.302Z,4.04
2024-03-08T07:14:03.188Z,3.97
2024-03-08T07:15:03.224Z,3.97
2024-03-08T07:16:03.197Z,4.16
2024-03-08T07:17:05.604Z,4.19
2024-03-08T07:18:03.231Z,4.13
2024-03-08T07:19:03.231Z,4.28
2024-03-08T07:20:03.074Z,4.23
2024-03-08T07:21:03.151Z,4.43
2024-03-08T07:22:03.031Z,4.43
2024-03-08T07:23:03.005Z,4.41
2024-03-08T07:24:03.077Z,4.46
2024-03-08T07:25:02.976Z,4.58
2024-03-08T07:26:03.029Z,4.74
2024-03-08T07:27:03.110Z,4.80
2024-03-08T07:28:02.914Z,4.86
2024-03-08T07:29:02.901Z,4.99
2024-03-08T07:31:02.928Z,5.13
2024-03-08T07:32:02.925Z,5.17
2024-03-08T07:33:02.908Z,5.35
2024-03-08T07:34:02.797Z,5.43
2024-03-08T07:35:02.771Z,5.59
2024-03-08T07:36:02.807Z,5.64
2024-03-08T07:37:03.608Z,5.72
2024-03-08T07:38:02.730Z,5.82
2024-03-08T07:39:02.709Z,5.95
2024-03-08T07:40:02.684Z,6.10
2024-03-08T07:41:04.500Z,6.21
2024-03-08T07:42:02.713Z,6.32
2024-03-08T07:43:02.628Z,6.44
2024-03-08T07:44:02.608Z,6.59
2024-03-08T07:45:02.644Z,6.78
2024-03-08T07:46:02.568Z,6.92
2024-03-08T07:47:02.541Z,7.20
2024-03-08T07:48:02.625Z,7.32
2024-03-08T07:49:02.546Z,7.47
2024-03-08T07:50:05.066Z,7.56
2024-03-08T07:51:02.488Z,7.87
2024-03-08T07:52:02.452Z,7.97
2024-03-08T07:53:02.438Z,8.12
2024-03-08T07:54:02.430Z,8.31
2024-03-08T07:55:02.392Z,8.51
2024-03-08T07:56:02.378Z,8.69
2024-03-08T07:57:02.370Z,8.80
2024-03-08T07:58:02.450Z,8.95
2024-03-08T07:59:02.376Z,9.08
2024-03-08T08:00:02.311Z,9.26
2024-03-08T08:01:02.307Z,9.37
2024-03-08T08:02:02.442Z,9.51
2024-03-08T08:03:02.255Z,9.59
2024-03-08T08:04:02.232Z,9.76
2024-03-08T08:05:02.222Z,9.97
2024-03-08T08:06:02.198Z,10.22
2024-03-08T08:07:02.188Z,10.28
2024-03-08T08:08:02.209Z,10.33
2024-03-08T08:09:02.152Z,10.60
2024-03-08T08:10:02.140Z,10.68
2024-03-08T08:11:02.196Z,10.89
2024-03-08T08:12:02.107Z,10.95
2024-03-08T08:13:03.497Z,11.15
2024-03-08T08:14:02.091Z,11.32
2024-03-08T08:15:02.050Z,11.58
2024-03-08T08:16:02.039Z,11.63
2024-03-08T08:17:02.209Z,11.83
2024-03-08T08:18:02.098Z,12.03
2024-03-08T08:19:02.012Z,12.03
2024-03-08T08:20:01.988Z,12.25
2024-03-08T08:21:01.962Z,12.28
2024-03-08T08:22:01.952Z,12.50
2024-03-08T08:23:01.958Z,12.61
2024-03-08T08:24:01.916Z,12.82
2024-03-08T08:25:01.898Z,13.21
2024-03-08T08:26:01.893Z,13.75
2024-03-08T08:27:01.866Z,14.08
2024-03-08T08:28:01.849Z,14.19
2024-03-08T08:29:01.838Z,14.28
2024-03-08T08:30:01.850Z,14.44
2024-03-08T08:31:01.810Z,14.45
2024-03-08T08:32:03.575Z,14.51
2024-03-08T08:33:01.814Z,14.61
2024-03-08T08:34:01.773Z,14.59
2024-03-08T08:35:01.755Z,14.84
2024-03-08T08:36:01.746Z,14.78
2024-03-08T08:37:01.721Z,14.95
2024-03-08T08:38:01.735Z,15.22
2024-03-08T08:39:01.694Z,15.91
2024-03-08T08:40:01.734Z,17.49
2024-03-08T08:41:01.799Z,19.23
2024-03-08T08:42:01.653Z,19.70
2024-03-08T08:43:01.649Z,19.19
2024-03-08T08:44:09.063Z,18.59
2024-03-08T08:45:11.392Z,18.30
2024-03-08T08:46:01.619Z,18.15
2024-03-08T08:47:09.868Z,17.83
2024-03-08T08:48:01.598Z,17.73
2024-03-08T08:49:01.555Z,17.48
2024-03-08T08:50:01.542Z,17.54
2024-03-08T08:51:01.525Z,17.67
2024-03-08T08:52:09.049Z,17.53
2024-03-08T08:53:01.536Z,17.48
2024-03-08T08:54:01.497Z,17.53
2024-03-08T08:55:01.475Z,17.91
2024-03-08T08:56:01.531Z,17.79
2024-03-08T08:57:01.449Z,19.14
2024-03-08T08:58:01.435Z,20.65
2024-03-08T08:59:01.454Z,21.24
2024-03-08T09:00:01.469Z,20.74
2024-03-08T09:01:01.438Z,19.96
2024-03-08T09:02:01.679Z,19.42
2024-03-08T09:03:01.374Z,19.12
2024-03-08T09:04:01.388Z,18.83
2024-03-08T09:05:01.452Z,18.62
2024-03-08T09:06:01.339Z,18.56
2024-03-08T09:07:01.320Z,18.40
2024-03-08T09:08:01.517Z,18.41
2024-03-08T09:09:04.597Z,18.40
2024-03-08T09:11:01.375Z,18.58
2024-03-08T09:12:01.398Z,18.73
2024-03-08T09:13:01.450Z,18.98
2024-03-08T09:14:01.452Z,19.39
2024-03-08T09:15:01.246Z,20.78
2024-03-08T09:16:01.224Z,22.44
2024-03-08T09:17:01.347Z,23.07
2024-03-08T09:18:01.441Z,22.69
2024-03-08T09:19:02.103Z,22.13
2024-03-08T09:20:01.589Z,21.55
2024-03-08T09:21:01.308Z,21.40
2024-03-08T09:22:01.730Z,21.05
2024-03-08T09:23:02.298Z,20.87
2024-03-08T09:24:01.977Z,20.28
2024-03-08T09:25:01.658Z,20.10
2024-03-08T09:26:05.157Z,19.86
2024-03-08T09:27:01.300Z,19.99
2024-03-08T09:28:02.146Z,19.91
2024-03-08T09:29:02.129Z,19.92
2024-03-08T09:30:01.576Z,19.81
2024-03-08T09:31:01.949Z,20.03
2024-03-08T09:32:01.142Z,20.48
2024-03-08T09:33:01.191Z,21.39
2024-03-08T09:34:02.933Z,22.91
2024-03-08T09:35:01.199Z,24.20
2024-03-08T09:36:04.068Z,24.48
2024-03-08T09:37:01.148Z,24.05
2024-03-08T09:38:01.468Z,23.58
2024-03-08T09:39:03.693Z,23.41
2024-03-08T09:40:01.628Z,23.55
2024-03-08T09:41:01.734Z,23.59
2024-03-08T09:43:03.050Z,23.61
2024-03-08T09:45:05.011Z,23.86
2024-03-08T09:47:01.808Z,24.13
2024-03-08T09:48:04.640Z,23.76
2024-03-08T09:51:05.862Z,24.29
2024-03-08T09:52:06.514Z,24.60
2024-03-08T09:56:04.769Z,24.60
2024-03-08T09:57:01.178Z,24.50
2024-03-08T09:58:00.989Z,24.51
2024-03-08T09:59:00.948Z,24.45
2024-03-08T10:00:00.839Z,24.30
2024-03-08T10:01:00.925Z,24.29
2024-03-08T10:02:01.117Z,24.14
2024-03-08T10:03:01.116Z,24.11
2024-03-08T10:04:00.824Z,24.11
2024-03-08T10:05:00.850Z,24.18
2024-03-08T10:06:00.798Z,24.21
2024-03-08T10:07:00.777Z,24.18
2024-03-08T10:08:00.785Z,24.18
2024-03-08T10:09:00.779Z,24.21
2024-03-08T10:10:00.804Z,24.10
2024-03-08T10:11:01.124Z,24.10
2024-03-08T10:12:00.862Z,24.14
2024-03-08T10:13:00.798Z,24.29
2024-03-08T10:14:00.760Z,24.37
2024-03-08T10:15:00.855Z,24.39
2024-03-08T10:16:00.723Z,24.54
2024-03-08T10:17:00.697Z,24.77
2024-03-08T10:18:00.686Z,24.88
2024-03-08T10:19:00.707Z,25.07
2024-03-08T10:20:00.917Z,25.13
2024-03-08T10:21:00.704Z,25.23
2024-03-08T10:22:01.157Z,25.19
2024-03-08T10:23:07.571Z,25.38
2024-03-08T10:24:00.636Z,25.38
2024-03-08T10:25:00.622Z,25.55
2024-03-08T10:26:00.718Z,25.44
2024-03-08T10:27:00.599Z,25.55
2024-03-08T10:28:00.622Z,25.58
2024-03-08T10:29:00.617Z,25.59
2024-03-08T10:30:02.718Z,25.69
2024-03-08T10:31:00.606Z,25.85
2024-03-08T10:32:00.814Z,26.11
2024-03-08T10:33:00.664Z,26.26
2024-03-08T10:34:00.623Z,26.40
2024-03-08T10:35:00.701Z,26.35
2024-03-08T10:36:00.613Z,26.41
2024-03-08T10:37:00.563Z,26.37
2024-03-08T10:38:00.646Z,26.38
2024-03-08T10:39:00.554Z,26.38
2024-03-08T10:40:00.526Z,26.41
2024-03-08T10:41:00.667Z,26.49
2024-03-08T10:42:00.678Z,26.44
2024-03-08T10:43:00.690Z,26.49
2024-03-08T10:44:00.654Z,26.67
2024-03-08T10:45:00.565Z,26.93
2024-03-08T10:46:00.533Z,27.00
2024-03-08T10:47:00.650Z,27.08
2024-03-08T10:48:00.545Z,27.17
2024-03-08T10:49:00.543Z,27.29
2024-03-08T10:50:00.521Z,27.32
2024-03-08T10:51:00.528Z,27.46
2024-03-08T10:52:00.493Z,27.72
2024-03-08T10:53:00.605Z,28.02
2024-03-08T10:54:00.461Z,28.12
2024-03-08T10:55:00.509Z,28.29
2024-03-08T10:56:00.615Z,28.19
2024-03-08T10:57:00.502Z,28.26
2024-03-08T10:58:00.458Z,28.24
2024-03-08T10:59:00.524Z,28.26
2024-03-08T11:00:00.468Z,28.26
2024-03-08T11:01:00.539Z,28.26
2024-03-08T11:02:00.531Z,28.30
2024-03-08T11:03:00.424Z,28.27
2024-03-08T11:04:00.493Z,28.26
2024-03-08T11:05:00.482Z,28.38
2024-03-08T11:06:00.406Z,28.60
2024-03-08T11:07:00.442Z,28.73
2024-03-08T11:08:00.828Z,29.04
2024-03-08T11:09:00.541Z,29.19
2024-03-08T11:10:00.459Z,29.31
2024-03-08T11:11:00.862Z,29.47
2024-03-08T11:12:00.585Z,29.62
2024-03-08T11:13:00.427Z,29.70
2024-03-08T11:14:00.577Z,29.95
2024-03-08T11:15:00.445Z,29.91
2024-03-08T11:16:00.413Z,30.16
2024-03-08T11:17:00.612Z,30.45
2024-03-08T11:18:00.447Z,30.66
2024-03-08T11:19:00.337Z,30.66
2024-03-08T11:20:00.425Z,30.88
2024-03-08T11:21:00.328Z,30.99
2024-03-08T11:22:00.319Z,31.11
2024-03-08T11:23:00.364Z,31.18
2024-03-08T11:24:00.326Z,31.36
2024-03-08T11:25:00.306Z,31.58
2024-03-08T11:26:00.433Z,31.70
2024-03-08T11:27:00.343Z,31.89
2024-03-08T11:28:00.307Z,32.05
2024-03-08T11:29:00.393Z,32.23
2024-03-08T11:30:01.136Z,32.35
2024-03-08T11:31:00.762Z,32.30
2024-03-08T11:32:00.328Z,32.27
2024-03-08T11:33:00.303Z,32.25
2024-03-08T11:34:00.286Z,32.30
2024-03-08T11:35:00.309Z,32.46
2024-03-08T11:36:00.277Z,32.86
2024-03-08T11:37:00.303Z,33.08
2024-03-08T11:38:00.330Z,33.36
2024-03-08T11:39:00.281Z,33.50
2024-03-08T11:40:00.710Z,33.77
2024-03-08T11:41:00.382Z,33.95
2024-03-08T11:42:00.259Z,34.12
2024-03-08T11:43:00.279Z,34.00
2024-03-08T11:44:00.270Z,33.89
2024-03-08T11:45:00.270Z,33.71
2024-03-08T11:46:00.260Z,33.71
2024-03-08T11:47:00.434Z,33.56
2024-03-08T11:48:00.300Z,33.55
2024-03-08T11:49:00.249Z,33.63
2024-03-08T11:50:00.317Z,33.73
2024-03-08T11:51:00.246Z,33.77
2024-03-08T11:52:00.239Z,33.84
2024-03-08T11:53:00.388Z,33.89
2024-03-08T11:54:00.233Z,33.65
2024-03-08T11:55:00.250Z,33.61
2024-03-08T11:56:00.284Z,33.55
2024-03-08T11:57:00.263Z,33.65
2024-03-08T11:58:00.217Z,33.70
2024-03-08T11:59:00.331Z,33.93
2024-03-08T12:00:00.263Z,34.26
2024-03-08T12:01:00.210Z,34.56
2024-03-08T12:02:00.310Z,34.77
2024-03-08T12:03:00.210Z,34.93
2024-03-08T12:04:00.338Z,35.06
2024-03-08T12:05:00.256Z,34.82
2024-03-08T12:06:00.203Z,34.61
2024-03-08T12:07:00.198Z,34.12
2024-03-08T12:08:00.436Z,33.65
2024-03-08T12:09:00.193Z,33.14
2024-03-08T12:10:00.246Z,32.50
2024-03-08T12:11:00.258Z,32.20
2024-03-08T12:12:00.257Z,31.96
2024-03-08T12:13:00.172Z,31.75
2024-03-08T12:14:00.255Z,31.75
2024-03-08T12:15:00.208Z,31.59
2024-03-08T12:16:00.174Z,31.46
2024-03-08T12:17:00.213Z,31.31
2024-03-08T12:18:00.193Z,31.15
2024-03-08T12:19:00.141Z,31.02
2024-03-08T12:20:00.237Z,30.97
2024-03-08T12:21:00.137Z,30.77
2024-03-08T12:22:00.127Z,30.37
2024-03-08T12:23:00.530Z,30.14
2024-03-08T12:24:00.125Z,29.62
2024-03-08T12:25:00.113Z,29.01
2024-03-08T12:26:00.228Z,28.48
2024-03-08T12:27:00.161Z,27.79
2024-03-08T12:28:00.139Z,27.74
2024-03-08T12:29:00.113Z,27.64
2024-03-08T12:30:00.108Z,27.44
2024-03-08T12:31:00.108Z,27.30
2024-03-08T12:32:00.286Z,27.18
2024-03-08T12:33:00.136Z,27.07
2024-03-08T12:34:00.135Z,27.02
2024-03-08T12:35:00.099Z,27.04
2024-03-08T12:36:00.293Z,26.87
2024-03-08T12:37:00.044Z,26.92
2024-03-08T12:38:00.092Z,26.80
2024-03-08T12:39:00.021Z,26.65
2024-03-08T12:40:00.025Z,26.56
2024-03-08T12:41:00.303Z,26.40
2024-03-08T12:42:00.073Z,26.40
2024-03-08T12:43:00.000Z,25.20
2024-03-08T12:44:00.041Z,24.23
2024-03-08T12:44:59.996Z,24.36
2024-03-08T12:45:59.990Z,24.57
2024-03-08T12:47:00.690Z,24.86
2024-03-08T12:47:59.969Z,24.83
2024-03-08T12:48:59.942Z,24.95
2024-03-08T12:50:00.058Z,24.82
2024-03-08T12:50:59.929Z,24.82
2024-03-08T12:51:59.961Z,24.85
2024-03-08T12:52:59.976Z,24.91
2024-03-08T12:53:59.899Z,24.85
2024-03-08T12:54:59.899Z,24.73
2024-03-08T12:55:59.903Z,24.67
2024-03-08T12:56:59.942Z,24.69
2024-03-08T12:57:59.868Z,24.76
2024-03-08T12:58:59.975Z,24.62
2024-03-08T12:59:59.856Z,24.55
2024-03-08T13:00:59.864Z,24.62
2024-03-08T13:01:59.888Z,24.44
2024-03-08T13:03:00.057Z,24.32
2024-03-08T13:03:59.817Z,24.20
2024-03-08T13:05:00.011Z,24.15
2024-03-08T13:05:59.801Z,23.95
2024-03-08T13:06:59.785Z,23.89
2024-03-08T13:07:59.815Z,23.66
2024-03-08T13:08:59.768Z,23.62
2024-03-08T13:09:59.755Z,23.66
2024-03-08T13:10:59.907Z,23.70
2024-03-08T13:11:59.850Z,23.65
2024-03-08T13:12:59.733Z,23.71
2024-03-08T13:13:59.741Z,23.63
2024-03-08T13:14:59.711Z,23.66
2024-03-08T13:15:59.706Z,23.59
2024-03-08T13:16:59.778Z,23.52
2024-03-08T13:17:59.698Z,23.43